Time;durP1;ratioP1;P1;durP2;ratioP2;P2;SDS_P1;SDS_P2;PMS_P1;PMS_P2;Temp;Humidity;BMP_temperature;BMP_pressure;BME280_temperature;BME280_humidity;BME280_pressure;Samples;Min_cycle;Max_cycle;Signal;HPM_P1;HPM_P2
2024/01/29 00:01:56;;;;;;;10.50;7.63;;;2.20;97.50;;;;;;4970068;28;20471;-65
2024/01/29 00:04:23;;;;;;;40.17;10.13;;;2.30;97.30;;;;;;4973781;28;20924;-65
2024/01/29 00:06:50;;;;;;;9.60;7.57;;;2.30;97.20;;;;;;4971851;28;20836;-65
2024/01/29 00:09:18;;;;;;;12.93;7.87;;;2.30;97.10;;;;;;4987540;28;20724;-65
2024/01/29 00:11:45;;;;;;;32.93;8.20;;;2.40;97.10;;;;;;4967736;28;20490;-65
2024/01/29 00:14:13;;;;;;;14.47;8.27;;;2.50;96.80;;;;;;4982832;28;20474;-65
2024/01/29 00:16:40;;;;;;;10.47;7.90;;;2.50;96.80;;;;;;4993982;28;20875;-64
2024/01/29 00:19:07;;;;;;;10.27;7.80;;;2.50;96.90;;;;;;4989447;28;20553;-65
2024/01/29 00:21:34;;;;;;;13.67;9.37;;;2.50;96.70;;;;;;4988469;28;20542;-65
2024/01/29 00:24:01;;;;;;;13.07;8.83;;;2.60;96.60;;;;;;4977797;28;20484;-64
2024/01/29 00:26:28;;;;;;;9.83;7.80;;;2.60;96.70;;;;;;5006881;28;20861;-63
2024/01/29 00:28:55;;;;;;;25.00;10.00;;;2.60;96.70;;;;;;4980275;28;20480;-64
2024/01/29 00:31:24;;;;;;;25.90;11.07;;;2.60;96.70;;;;;;4989153;28;20482;-65
2024/01/29 00:33:52;;;;;;;12.13;8.87;;;2.60;96.80;;;;;;4992643;28;20477;-65
2024/01/29 00:36:19;;;;;;;13.67;9.00;;;2.50;96.70;;;;;;4998133;28;20474;-65
2024/01/29 00:38:46;;;;;;;11.87;7.73;;;2.50;96.80;;;;;;4999023;28;20999;-69
2024/01/29 00:41:13;;;;;;;19.33;8.63;;;2.50;96.80;;;;;;4988952;28;20567;-75
2024/01/29 00:43:40;;;;;;;11.80;8.27;;;2.50;96.70;;;;;;4969797;28;20488;-72
2024/01/29 00:46:07;;;;;;;17.20;7.80;;;2.50;96.60;;;;;;4993393;28;20980;-69
2024/01/29 00:48:35;;;;;;;13.50;7.97;;;2.50;96.60;;;;;;4975528;28;20567;-70
2024/01/29 00:51:03;;;;;;;12.83;8.30;;;2.50;96.60;;;;;;4983352;28;20469;-73
2024/01/29 00:53:30;;;;;;;12.50;8.50;;;2.50;96.60;;;;;;4994632;28;20784;-73
2024/01/29 00:55:58;;;;;;;11.87;9.13;;;2.60;96.60;;;;;;4986766;28;20539;-70
2024/01/29 00:58:25;;;;;;;15.63;8.50;;;2.60;96.50;;;;;;4970508;28;20484;-75
2024/01/29 01:00:52;;;;;;;11.07;8.07;;;2.60;96.40;;;;;;4989978;28;20488;-70
2024/01/29 01:03:19;;;;;;;18.20;8.93;;;2.60;96.30;;;;;;4996820;28;20575;-74
2024/01/29 01:05:48;;;;;;;32.37;9.30;;;2.50;96.40;;;;;;4981863;28;20917;-73
2024/01/29 01:08:15;;;;;;;14.30;8.60;;;2.40;96.30;;;;;;4970261;28;20562;-74
2024/01/29 01:10:42;;;;;;;12.13;8.30;;;2.30;96.30;;;;;;4980481;28;20523;-69
2024/01/29 01:13:09;;;;;;;12.90;7.17;;;2.10;96.70;;;;;;5001803;28;20555;-73
2024/01/29 01:15:36;;;;;;;22.93;9.80;;;2.00;97.00;;;;;;4984427;28;20493;-70
2024/01/29 01:18:03;;;;;;;11.67;7.20;;;2.00;97.40;;;;;;4995096;28;20564;-74
2024/01/29 01:20:32;;;;;;;28.00;8.70;;;1.90;97.30;;;;;;4991538;28;20489;-71
2024/01/29 01:23:01;;;;;;;12.20;8.03;;;2.00;97.60;;;;;;4996405;28;20939;-74
2024/01/29 01:25:28;;;;;;;15.10;8.90;;;2.00;97.50;;;;;;4954561;28;20941;-69
2024/01/29 01:27:56;;;;;;;12.73;8.60;;;2.10;97.50;;;;;;4992608;28;20523;-74
2024/01/29 01:30:23;;;;;;;12.70;9.43;;;2.10;97.50;;;;;;4968427;28;20490;-72
2024/01/29 01:32:50;;;;;;;17.97;9.17;;;2.10;97.70;;;;;;4993817;28;20523;-72
2024/01/29 01:35:17;;;;;;;16.13;9.43;;;2.20;97.70;;;;;;4998522;28;20477;-74
2024/01/29 01:37:44;;;;;;;18.70;9.40;;;2.20;97.50;;;;;;4991734;28;20483;-75
2024/01/29 01:40:13;;;;;;;37.73;9.23;;;2.30;97.40;;;;;;4997585;28;20540;-70
2024/01/29 01:42:41;;;;;;;13.00;8.63;;;2.40;97.40;;;;;;4982534;28;20473;-69
2024/01/29 01:45:09;;;;;;;11.77;8.90;;;2.40;97.20;;;;;;4985507;28;20476;-69
2024/01/29 01:47:36;;;;;;;13.40;9.30;;;2.50;97.20;;;;;;4997179;28;20477;-72
2024/01/29 01:50:04;;;;;;;21.07;9.30;;;2.50;97.10;;;;;;4981256;28;20478;-73
2024/01/29 01:52:35;;;;;;;11.63;8.10;;;2.50;97.20;;;;;;4966483;28;20891;-72
2024/01/29 01:55:02;;;;;;;26.47;10.20;;;2.50;96.90;;;;;;4974149;28;20485;-73
2024/01/29 01:57:30;;;;;;;11.70;8.60;;;2.50;96.90;;;;;;4974381;28;21508;-68
2024/01/29 01:59:57;;;;;;;14.83;9.90;;;2.50;96.90;;;;;;4984212;28;20474;-72
2024/01/29 02:02:24;;;;;;;13.40;9.87;;;2.50;97.00;;;;;;4988767;28;20490;-72
2024/01/29 02:04:51;;;;;;;14.50;10.13;;;2.40;96.90;;;;;;4978980;28;20780;-72
2024/01/29 02:07:18;;;;;;;35.87;10.00;;;2.50;96.80;;;;;;4988674;28;20893;-75
2024/01/29 02:09:46;;;;;;;14.07;8.50;;;2.50;96.70;;;;;;4992591;28;20488;-69
2024/01/29 02:12:13;;;;;;;21.63;9.43;;;2.50;96.60;;;;;;4990164;28;20473;-73
2024/01/29 02:14:41;;;;;;;20.43;9.37;;;2.40;96.80;;;;;;4990975;28;21274;-74
2024/01/29 02:17:08;;;;;;;16.40;8.80;;;2.40;97.10;;;;;;5005297;28;20490;-75
2024/01/29 02:19:35;;;;;;;13.70;8.70;;;2.10;97.30;;;;;;4985663;28;21036;-72
2024/01/29 02:22:02;;;;;;;10.77;7.80;;;2.00;98.40;;;;;;4994003;28;20747;-74
2024/01/29 02:24:30;;;;;;;21.97;9.20;;;2.10;98.00;;;;;;4996916;28;20489;-73
2024/01/29 02:26:57;;;;;;;20.10;8.63;;;2.00;98.00;;;;;;4978470;28;20489;-72
2024/01/29 02:29:24;;;;;;;7.97;7.00;;;2.10;97.60;;;;;;5006138;28;20489;-72
2024/01/29 02:31:50;;;;;;;11.47;7.80;;;2.20;97.50;;;;;;4992910;28;20474;-75
2024/01/29 02:34:17;;;;;;;10.60;8.20;;;2.20;97.40;;;;;;4985030;28;20493;-72
2024/01/29 02:36:45;;;;;;;11.63;8.70;;;2.30;97.30;;;;;;4967791;28;20982;-76
2024/01/29 02:39:15;;;;;;;11.63;7.73;;;2.30;97.30;;;;;;4982892;28;20493;-70
2024/01/29 02:41:43;;;;;;;32.50;9.40;;;2.30;97.40;;;;;;4968776;28;20469;-70
2024/01/29 02:44:13;;;;;;;20.43;9.97;;;2.30;97.30;;;;;;4995349;28;20482;-73
2024/01/29 02:46:40;;;;;;;21.03;9.50;;;2.30;97.30;;;;;;4976276;28;20490;-73
2024/01/29 02:49:07;;;;;;;22.83;11.27;;;2.40;97.30;;;;;;4998929;28;21048;-72
2024/01/29 02:51:34;;;;;;;15.30;10.00;;;2.40;97.30;;;;;;4987700;28;20909;-73
2024/01/29 02:54:01;;;;;;;17.27;9.97;;;2.40;97.20;;;;;;4982747;28;20485;-73
2024/01/29 02:56:28;;;;;;;36.70;9.73;;;2.50;97.20;;;;;;4996976;28;20498;-75
2024/01/29 02:58:56;;;;;;;16.93;10.10;;;2.50;97.20;;;;;;4990128;28;20506;-66
2024/01/29 03:01:23;;;;;;;16.73;9.70;;;2.50;97.10;;;;;;4978907;28;20936;-64
2024/01/29 03:03:50;;;;;;;27.13;10.30;;;2.50;97.10;;;;;;4990286;28;20485;-65
2024/01/29 03:06:17;;;;;;;13.40;9.37;;;2.50;97.00;;;;;;4984727;28;20485;-65
2024/01/29 03:08:45;;;;;;;22.23;9.43;;;2.50;97.00;;;;;;4979660;28;20473;-65
2024/01/29 03:11:12;;;;;;;13.77;9.33;;;2.50;96.90;;;;;;4991918;28;20606;-65
2024/01/29 03:13:39;;;;;;;13.70;9.43;;;2.50;96.90;;;;;;4975562;28;20535;-65
2024/01/29 03:16:08;;;;;;;14.60;10.20;;;2.50;96.80;;;;;;5003606;28;21289;-65
2024/01/29 03:18:35;;;;;;;18.10;9.77;;;2.50;96.80;;;;;;4989111;28;20591;-65
2024/01/29 03:21:03;;;;;;;26.43;9.83;;;2.50;96.70;;;;;;4989124;28;20515;-64
2024/01/29 03:23:30;;;;;;;19.60;8.43;;;2.50;96.80;;;;;;4998744;28;20478;-64
2024/01/29 03:25:57;;;;;;;15.00;9.70;;;2.50;96.80;;;;;;4983774;28;20477;-65
2024/01/29 03:28:24;;;;;;;14.30;8.97;;;2.50;96.90;;;;;;5002135;28;20817;-64
2024/01/29 03:30:51;;;;;;;13.13;8.73;;;2.50;96.90;;;;;;4993533;28;20882;-64
2024/01/29 03:33:19;;;;;;;17.90;8.67;;;2.50;97.00;;;;;;4988643;28;20833;-65
2024/01/29 03:35:46;;;;;;;9.60;8.20;;;2.50;97.00;;;;;;5005698;28;20521;-64
2024/01/29 03:38:13;;;;;;;11.60;8.53;;;2.50;97.10;;;;;;4982415;28;20498;-65
2024/01/29 03:40:40;;;;;;;11.63;8.23;;;2.50;97.00;;;;;;5006582;28;20496;-65
2024/01/29 03:43:07;;;;;;;14.00;9.50;;;2.50;96.90;;;;;;4984230;28;20852;-65
2024/01/29 03:45:34;;;;;;;11.10;8.80;;;2.50;96.90;;;;;;4998132;28;20551;-64
2024/01/29 03:48:00;;;;;;;15.10;9.70;;;2.50;96.80;;;;;;4999370;28;20594;-65
2024/01/29 03:50:29;;;;;;;11.80;8.83;;;2.40;96.90;;;;;;4997638;28;20481;-64
2024/01/29 03:52:56;;;;;;;12.87;8.90;;;2.50;96.90;;;;;;4981404;28;20509;-65
2024/01/29 03:55:23;;;;;;;41.60;10.80;;;2.50;96.90;;;;;;4986220;28;21035;-66
2024/01/29 03:57:49;;;;;;;22.93;9.43;;;2.50;96.90;;;;;;4985505;28;21147;-64
2024/01/29 04:00:18;;;;;;;18.17;11.10;;;2.50;96.80;;;;;;4994030;28;20488;-64
2024/01/29 04:02:46;;;;;;;49.63;34.80;;;2.50;96.80;;;;;;4995491;28;20904;-64
2024/01/29 04:05:13;;;;;;;13.77;11.23;;;2.50;96.80;;;;;;4986880;28;20482;-64
2024/01/29 04:07:42;;;;;;;22.90;9.50;;;2.40;96.60;;;;;;4957252;28;20492;-64
2024/01/29 04:10:09;;;;;;;14.17;9.17;;;2.40;96.70;;;;;;5013132;28;20472;-69
2024/01/29 04:12:36;;;;;;;13.00;8.63;;;2.40;96.70;;;;;;4999921;28;20839;-74
2024/01/29 04:15:03;;;;;;;14.43;9.50;;;2.40;96.70;;;;;;4977571;28;20485;-73
2024/01/29 04:17:30;;;;;;;16.63;10.00;;;2.40;96.70;;;;;;5000168;28;20820;-72
2024/01/29 04:19:57;;;;;;;14.67;10.23;;;2.40;96.70;;;;;;4994896;28;20485;-71
2024/01/29 04:22:25;;;;;;;13.90;9.80;;;2.40;96.60;;;;;;4993654;28;20482;-76
2024/01/29 04:24:54;;;;;;;14.60;10.10;;;2.40;96.70;;;;;;4981957;28;20491;-72
2024/01/29 04:27:21;;;;;;;12.20;9.77;;;2.40;96.70;;;;;;4990602;28;20813;-73
2024/01/29 04:29:48;;;;;;;39.70;11.70;;;2.40;96.70;;;;;;4990335;28;20494;-73
2024/01/29 04:32:15;;;;;;;17.00;11.67;;;2.40;96.70;;;;;;4978095;28;20975;-73
2024/01/29 04:34:42;;;;;;;17.23;12.37;;;2.40;96.60;;;;;;4996153;28;21042;-71
2024/01/29 04:37:09;;;;;;;20.77;12.47;;;2.40;96.70;;;;;;4989007;28;20925;-71
2024/01/29 04:39:38;;;;;;;16.00;10.87;;;2.30;96.50;;;;;;4984000;28;20482;-74
2024/01/29 04:42:06;;;;;;;27.07;10.70;;;2.30;96.60;;;;;;4995847;28;20550;-70
2024/01/29 04:44:33;;;;;;;11.17;8.50;;;2.20;96.50;;;;;;4994433;28;21025;-73
2024/01/29 04:47:00;;;;;;;17.30;10.80;;;2.10;96.80;;;;;;4969981;28;20473;-75
2024/01/29 04:49:27;;;;;;;11.43;8.90;;;2.00;96.70;;;;;;4973290;28;20500;-71
2024/01/29 04:51:54;;;;;;;19.13;12.20;;;2.10;96.80;;;;;;4980707;28;20481;-68
2024/01/29 04:54:21;;;;;;;11.23;8.83;;;2.00;96.90;;;;;;4958453;28;20784;-73
2024/01/29 04:56:48;;;;;;;15.13;10.27;;;1.80;97.00;;;;;;4979971;28;20489;-72
2024/01/29 04:59:17;;;;;;;21.70;11.73;;;;;;;;;;4997304;28;20516;-75
2024/01/29 05:01:43;;;;;;;16.50;9.23;;;1.60;97.60;;;;;;4974704;28;20482;-74
2024/01/29 05:04:11;;;;;;;23.33;11.13;;;1.40;97.70;;;;;;4993392;28;21001;-72
2024/01/29 05:06:38;;;;;;;38.97;11.97;;;1.30;98.30;;;;;;4970276;28;20476;-72
2024/01/29 05:09:05;;;;;;;14.77;9.77;;;1.20;98.70;;;;;;4995053;28;20477;-73
2024/01/29 05:11:31;;;;;;;18.00;10.53;;;1.10;99.10;;;;;;4971824;28;20528;-70
2024/01/29 05:14:01;;;;;;;14.47;11.40;;;1.10;99.60;;;;;;4968220;28;20694;-70
2024/01/29 05:16:32;;;;;;;26.63;11.90;;;1.00;99.90;;;;;;4964827;28;20499;-76
2024/01/29 05:18:59;;;;;;;15.50;10.43;;;1.00;99.90;;;;;;5005878;28;20481;-74
2024/01/29 05:21:27;;;;;;;15.13;9.70;;;1.00;99.90;;;;;;4967973;28;20946;-72
2024/01/29 05:23:53;;;;;;;19.83;10.63;;;1.00;99.90;;;;;;4997045;28;20485;-73
2024/01/29 05:26:20;;;;;;;14.10;9.87;;;1.00;99.90;;;;;;4952665;28;20497;-72
2024/01/29 05:28:47;;;;;;;16.77;10.90;;;1.10;99.90;;;;;;4984485;28;20559;-70
2024/01/29 05:31:14;;;;;;;16.20;10.87;;;1.10;99.90;;;;;;4994495;28;20486;-73
2024/01/29 05:33:43;;;;;;;25.53;9.73;;;1.00;99.90;;;;;;4978565;28;20922;-75
2024/01/29 05:36:10;;;;;;;16.97;12.60;;;1.00;99.90;;;;;;4981906;28;20556;-72
2024/01/29 05:38:37;;;;;;;30.60;12.37;;;1.00;99.90;;;;;;4981763;28;20578;-72
2024/01/29 05:41:04;;;;;;;19.70;9.70;;;1.10;99.90;;;;;;4950721;28;20564;-73
2024/01/29 05:43:31;;;;;;;15.60;10.23;;;1.10;99.90;;;;;;4984486;28;20489;-75
2024/01/29 05:45:58;;;;;;;18.17;12.57;;;1.30;99.90;;;;;;4957960;28;20486;-69
2024/01/29 05:48:24;;;;;;;16.13;10.23;;;1.20;99.90;;;;;;4988384;28;20484;-72
2024/01/29 05:50:53;;;;;;;18.10;11.47;;;1.10;99.90;;;;;;4995505;28;20486;-73
2024/01/29 05:53:20;;;;;;;17.07;10.43;;;1.20;99.90;;;;;;4981557;28;20548;-68
2024/01/29 05:55:47;;;;;;;12.53;9.47;;;1.20;99.90;;;;;;4996922;28;20572;-72
2024/01/29 05:58:14;;;;;;;13.73;9.47;;;1.40;99.90;;;;;;4997805;28;21427;-71
2024/01/29 06:00:41;;;;;;;17.87;9.40;;;1.60;99.90;;;;;;4962041;28;20868;-75
2024/01/29 06:03:08;;;;;;;14.60;9.37;;;1.80;99.90;;;;;;5000594;28;20540;-72
2024/01/29 06:05:35;;;;;;;11.27;8.23;;;1.80;99.90;;;;;;4993097;28;20469;-75
2024/01/29 06:08:04;;;;;;;16.00;10.03;;;1.90;99.40;;;;;;4993517;28;20482;-72
2024/01/29 06:10:31;;;;;;;17.63;9.83;;;2.00;99.20;;;;;;4970145;28;20487;-75
2024/01/29 06:12:58;;;;;;;14.27;10.10;;;2.00;99.10;;;;;;4996517;28;20576;-73
2024/01/29 06:15:24;;;;;;;31.23;10.30;;;2.00;98.90;;;;;;4993391;28;20712;-70
2024/01/29 06:17:52;;;;;;;18.33;12.57;;;2.10;98.90;;;;;;4961874;28;20792;-72
2024/01/29 06:20:18;;;;;;;17.73;11.80;;;2.10;98.80;;;;;;4977051;28;20984;-73
2024/01/29 06:22:46;;;;;;;20.70;9.87;;;2.10;98.60;;;;;;4997688;28;20790;-73
2024/01/29 06:25:16;;;;;;;14.70;10.30;;;2.20;98.60;;;;;;4977805;28;20552;-71
2024/01/29 06:27:43;;;;;;;15.63;9.47;;;2.10;98.40;;;;;;4954711;28;20500;-72
2024/01/29 06:30:12;;;;;;;13.63;10.53;;;2.20;98.30;;;;;;5001291;28;20525;-70
2024/01/29 06:32:39;;;;;;;16.07;10.20;;;2.20;98.20;;;;;;4990312;28;20851;-73
2024/01/29 06:35:07;;;;;;;12.50;9.60;;;2.20;98.20;;;;;;4969608;28;20616;-72
2024/01/29 06:37:34;;;;;;;16.60;11.33;;;2.20;98.00;;;;;;4990909;28;20469;-74
2024/01/29 06:40:02;;;;;;;14.87;10.00;;;2.20;98.00;;;;;;4987098;28;20902;-73
2024/01/29 06:42:30;;;;;;;18.23;11.40;;;2.20;97.90;;;;;;5006419;28;20579;-73
2024/01/29 06:44:57;;;;;;;23.90;11.17;;;2.20;97.80;;;;;;4987632;28;20929;-71
2024/01/29 06:47:24;;;;;;;20.43;11.50;;;2.20;97.90;;;;;;5006495;28;20515;-75
2024/01/29 06:49:50;;;;;;;21.90;11.20;;;2.20;97.80;;;;;;4962845;28;20527;-73
2024/01/29 06:52:18;;;;;;;15.70;10.60;;;2.20;97.80;;;;;;4985526;28;20485;-71
2024/01/29 06:54:45;;;;;;;18.50;11.13;;;2.20;97.80;;;;;;4988013;28;20499;-70
2024/01/29 06:57:12;;;;;;;27.40;11.20;;;2.20;97.70;;;;;;4995969;28;20478;-74
2024/01/29 06:59:40;;;;;;;44.97;12.10;;;2.20;97.60;;;;;;4997204;28;20687;-72
2024/01/29 07:02:08;;;;;;;17.87;12.23;;;2.20;97.70;;;;;;4997618;28;20490;-70
2024/01/29 07:04:35;;;;;;;16.90;10.77;;;2.10;97.50;;;;;;4995791;28;21067;-73
2024/01/29 07:07:02;;;;;;;19.47;11.83;;;2.10;97.40;;;;;;4994666;28;20485;-76
2024/01/29 07:09:29;;;;;;;14.00;10.40;;;2.00;97.40;;;;;;4995826;28;20875;-75
2024/01/29 07:11:56;;;;;;;18.03;10.83;;;2.00;97.60;;;;;;4989658;28;20479;-73
2024/01/29 07:14:23;;;;;;;16.90;10.00;;;2.10;97.60;;;;;;4984104;28;20478;-73
2024/01/29 07:16:51;;;;;;;18.90;10.60;;;2.10;97.60;;;;;;4976892;28;20481;-69
2024/01/29 07:19:23;;;;;;;20.90;11.43;;;2.10;97.50;;;;;;4988391;28;21042;-73
2024/01/29 07:21:50;;;;;;;37.73;12.33;;;2.10;97.60;;;;;;4995558;28;20497;-74
2024/01/29 07:24:17;;;;;;;25.07;12.07;;;2.20;97.70;;;;;;4991347;28;20477;-72
2024/01/29 07:26:44;;;;;;;15.60;10.27;;;2.20;97.70;;;;;;4994721;28;20890;-73
2024/01/29 07:29:11;;;;;;;24.57;11.80;;;2.20;97.80;;;;;;4993831;28;20477;-73
2024/01/29 07:31:38;;;;;;;17.40;12.13;;;2.20;97.80;;;;;;4993058;28;20482;-71
2024/01/29 07:34:06;;;;;;;30.10;12.27;;;2.30;97.50;;;;;;5008466;28;20473;-74
2024/01/29 07:36:33;;;;;;;18.40;12.80;;;2.30;97.60;;;;;;4977929;28;20513;-70
2024/01/29 07:39:00;;;;;;;18.60;11.43;;;;;;;;;;4992280;28;20494;-72
2024/01/29 07:41:27;;;;;;;17.97;10.60;;;2.20;97.00;;;;;;4992493;28;20482;-66
2024/01/29 07:43:55;;;;;;;17.17;12.03;;;2.10;97.10;;;;;;4995496;28;21454;-65
2024/01/29 07:46:22;;;;;;;17.37;11.70;;;1.90;97.90;;;;;;4974895;28;20494;-65
2024/01/29 07:48:49;;;;;;;19.03;13.37;;;1.90;98.10;;;;;;4974510;28;20601;-65
2024/01/29 07:51:18;;;;;;;20.77;11.77;;;1.90;98.60;;;;;;4976080;28;20615;-66
2024/01/29 07:53:44;;;;;;;34.80;14.10;;;2.00;99.10;;;;;;4970613;28;20554;-64
2024/01/29 07:56:11;;;;;;;14.43;10.77;;;2.10;98.80;;;;;;4974817;28;20929;-65
2024/01/29 07:58:38;;;;;;;29.03;11.80;;;2.30;98.60;;;;;;4972168;28;20814;-65
2024/01/29 08:01:05;;;;;;;14.93;10.17;;;2.40;98.70;;;;;;4985784;28;20493;-66
2024/01/29 08:03:32;;;;;;;24.73;11.80;;;2.50;98.80;;;;;;4965231;28;20487;-65
2024/01/29 08:05:59;;;;;;;24.60;12.27;;;2.70;98.60;;;;;;4981066;28;20540;-65
2024/01/29 08:08:28;;;;;;;50.07;13.33;;;2.90;98.90;;;;;;4975556;28;20498;-65
2024/01/29 08:10:57;;;;;;;17.27;11.80;;;3.10;99.20;;;;;;4978381;28;20506;-66
2024/01/29 08:13:24;;;;;;;22.73;14.40;;;3.80;99.80;;;;;;4963258;28;21462;-66
2024/01/29 08:15:51;;;;;;;16.73;12.33;;;4.20;99.60;;;;;;4976952;28;20548;-66
2024/01/29 08:18:18;;;;;;;18.33;14.37;;;4.50;98.80;;;;;;4977652;28;21098;-66
2024/01/29 08:20:45;;;;;;;20.20;14.17;;;5.20;97.50;;;;;;4980148;28;20469;-66
2024/01/29 08:23:12;;;;;;;24.43;14.47;;;5.70;97.50;;;;;;4974676;28;20831;-66
2024/01/29 08:25:43;;;;;;;19.73;12.30;;;6.10;97.00;;;;;;4974309;28;20477;-66
2024/01/29 08:28:11;;;;;;;29.13;13.27;;;7.20;96.30;;;;;;4965609;28;20473;-66
2024/01/29 08:30:38;;;;;;;16.90;11.37;;;7.90;96.00;;;;;;4980865;28;20488;-66
2024/01/29 08:33:05;;;;;;;61.47;13.53;;;8.50;95.50;;;;;;4980371;28;20477;-66
2024/01/29 08:35:32;;;;;;;17.57;11.17;;;9.10;94.80;;;;;;4955552;28;20486;-67
2024/01/29 08:37:59;;;;;;;29.47;13.30;;;9.60;93.90;;;;;;4969787;28;20992;-66
2024/01/29 08:40:26;;;;;;;41.20;13.53;;;9.70;92.70;;;;;;4971762;28;20643;-66
2024/01/29 08:42:54;;;;;;;18.53;13.60;;;10.20;92.50;;;;;;4964462;28;20489;-65
2024/01/29 08:45:21;;;;;;;17.87;12.90;;;10.60;92.60;;;;;;4986993;28;20539;-67
2024/01/29 08:47:48;;;;;;;16.60;12.90;;;10.80;90.40;;;;;;4966138;28;20579;-65
2024/01/29 08:50:15;;;;;;;18.97;12.50;;;11.10;91.20;;;;;;4987849;28;20547;-68
2024/01/29 08:52:41;;;;;;;22.13;13.40;;;11.50;91.70;;;;;;4966971;28;20584;-66
2024/01/29 08:55:09;;;;;;;17.23;12.93;;;11.80;90.90;;;;;;4956383;28;20544;-66
2024/01/29 08:57:36;;;;;;;19.30;12.40;;;12.00;90.70;;;;;;4973238;28;20954;-65
2024/01/29 09:00:05;;;;;;;14.27;12.30;;;11.70;90.00;;;;;;4979763;28;20675;-66
2024/01/29 09:02:33;;;;;;;22.77;12.80;;;12.30;91.30;;;;;;4960692;28;20485;-67
2024/01/29 09:05:00;;;;;;;22.53;14.50;;;12.70;91.10;;;;;;4959579;28;20581;-66
2024/01/29 09:07:27;;;;;;;50.63;15.00;;;13.10;91.40;;;;;;4977832;28;20526;-66
2024/01/29 09:09:54;;;;;;;20.13;13.90;;;13.20;91.40;;;;;;4976218;28;21096;-66
2024/01/29 09:12:22;;;;;;;18.97;12.13;;;13.30;91.80;;;;;;4964858;28;20485;-66
2024/01/29 09:14:49;;;;;;;19.53;11.70;;;13.20;92.00;;;;;;4951983;28;21088;-65
2024/01/29 09:17:17;;;;;;;32.73;11.03;;;13.10;92.90;;;;;;4969633;28;20848;-66
2024/01/29 09:19:45;;;;;;;13.57;10.80;;;12.90;93.50;;;;;;4970883;28;20624;-66
2024/01/29 09:22:12;;;;;;;15.60;11.63;;;12.50;93.40;;;;;;4963548;28;20885;-66
2024/01/29 09:24:39;;;;;;;14.40;10.90;;;12.20;93.60;;;;;;4979709;28;20514;-66
2024/01/29 09:27:06;;;;;;;16.70;10.60;;;11.90;94.50;;;;;;4972987;28;20522;-67
2024/01/29 09:29:33;;;;;;;12.70;10.47;;;11.30;96.00;;;;;;4982545;28;20742;-67
2024/01/29 09:32:00;;;;;;;16.37;10.23;;;11.30;95.60;;;;;;4966527;28;20551;-66
2024/01/29 09:34:28;;;;;;;12.37;10.77;;;11.10;96.10;;;;;;4948905;28;20755;-67
2024/01/29 09:36:55;;;;;;;22.90;10.67;;;10.80;97.20;;;;;;4972556;28;20587;-65
2024/01/29 09:39:24;;;;;;;13.73;10.23;;;10.80;98.30;;;;;;4964228;28;20599;-66
2024/01/29 09:41:53;;;;;;;22.10;9.77;;;;;;;;;;4964808;28;20490;-66
2024/01/29 09:44:20;;;;;;;17.00;10.30;;;10.80;98.90;;;;;;4959912;28;20490;-66
2024/01/29 09:46:49;;;;;;;12.50;10.10;;;10.90;99.20;;;;;;4972759;28;20879;-65
2024/01/29 09:49:17;;;;;;;21.37;9.83;;;10.90;99.00;;;;;;4974819;28;20496;-66
2024/01/29 09:51:48;;;;;;;27.63;10.67;;;11.10;99.90;;;;;;4959720;28;20573;-66
2024/01/29 09:54:15;;;;;;;14.03;9.43;;;11.20;99.90;;;;;;4969174;28;20473;-69
2024/01/29 09:56:42;;;;;;;12.40;9.53;;;11.30;99.50;;;;;;4980979;28;20532;-66
2024/01/29 09:59:10;;;;;;;13.20;9.63;;;11.50;99.90;;;;;;4952469;28;20481;-66
2024/01/29 10:01:38;;;;;;;17.87;9.23;;;11.70;99.90;;;;;;4954544;28;20520;-66
2024/01/29 10:04:06;;;;;;;14.90;8.77;;;12.10;98.90;;;;;;4964492;28;20969;-66
2024/01/29 10:06:33;;;;;;;11.00;8.47;;;12.10;99.00;;;;;;4991099;28;20489;-65
2024/01/29 10:09:01;;;;;;;13.73;9.00;;;12.10;98.30;;;;;;4954706;28;20489;-67
2024/01/29 10:11:29;;;;;;;22.50;9.40;;;12.00;98.00;;;;;;4957017;28;20477;-67
2024/01/29 10:13:59;;;;;;;15.17;9.80;;;11.80;98.30;;;;;;4976434;28;20494;-65
2024/01/29 10:16:27;;;;;;;24.47;8.37;;;11.80;98.10;;;;;;4980301;28;21974;-65
2024/01/29 10:18:58;;;;;;;14.77;8.83;;;11.80;98.30;;;;;;4971839;28;20557;-66
2024/01/29 10:21:25;;;;;;;11.33;7.80;;;11.90;98.20;;;;;;4978077;28;20915;-65
2024/01/29 10:23:55;;;;;;;13.20;8.87;;;11.80;98.20;;;;;;4946295;28;21004;-65
2024/01/29 10:26:24;;;;;;;10.07;7.57;;;11.80;98.10;;;;;;4985008;28;20482;-65
2024/01/29 10:29:01;;;;;;;10.50;7.90;;;11.90;98.50;;;;;;4964404;28;20474;-67
2024/01/29 10:31:28;;;;;;;17.63;10.00;;;11.90;98.30;;;;;;4965657;28;20481;-66
2024/01/29 10:33:55;;;;;;;12.53;8.20;;;12.10;99.10;;;;;;4963199;28;20539;-63
2024/01/29 10:36:22;;;;;;;13.13;6.93;;;12.00;98.00;;;;;;4987490;28;20495;-66
2024/01/29 10:38:50;;;;;;;11.57;7.93;;;12.10;98.10;;;;;;4969206;28;20586;-66
2024/01/29 10:41:20;;;;;;;16.43;7.97;;;12.20;98.40;;;;;;4953651;28;20482;-66
2024/01/29 10:43:49;;;;;;;17.10;7.57;;;12.40;98.50;;;;;;4952383;28;20481;-64
2024/01/29 10:46:19;;;;;;;10.53;7.97;;;12.50;99.30;;;;;;4969237;28;20516;-65
2024/01/29 10:48:46;;;;;;;6.77;6.13;;;12.50;98.00;;;;;;4959852;28;21075;-65
2024/01/29 10:51:14;;;;;;;14.90;8.47;;;12.50;97.80;;;;;;4955475;28;20575;-65
2024/01/29 10:53:42;;;;;;;33.43;8.70;;;12.60;98.30;;;;;;4947036;28;21447;-64
2024/01/29 10:56:09;;;;;;;11.20;7.33;;;12.60;98.10;;;;;;4973020;28;20481;-65
2024/01/29 10:58:37;;;;;;;7.93;7.13;;;12.60;97.60;;;;;;4980995;28;21226;-63
2024/01/29 11:01:06;;;;;;;9.63;6.63;;;12.70;98.10;;;;;;4949032;28;20533;-64
2024/01/29 11:03:35;;;;;;;11.33;7.27;;;12.60;97.90;;;;;;4971381;28;20537;-65
2024/01/29 11:06:09;;;;;;;13.03;6.33;;;12.80;97.70;;;;;;4979604;28;20913;-66
2024/01/29 11:08:41;;;;;;;5.63;5.03;;;12.80;97.60;;;;;;4981348;28;20540;-65
2024/01/29 11:11:11;;;;;;;38.20;7.80;;;13.00;98.00;;;;;;4957070;28;20500;-69
2024/01/29 11:13:38;;;;;;;13.60;4.97;;;13.00;98.30;;;;;;4969033;28;20504;-66
2024/01/29 11:16:07;;;;;;;13.40;5.00;;;13.00;97.80;;;;;;4970131;28;20841;-68
2024/01/29 11:18:34;;;;;;;30.37;6.73;;;13.20;97.80;;;;;;4956426;28;20485;-70
2024/01/29 11:21:02;;;;;;;12.27;5.00;;;13.20;97.10;;;;;;4968617;28;21077;-69
2024/01/29 11:23:29;;;;;;;8.10;6.40;;;13.20;97.20;;;;;;4971677;28;21030;-67
2024/01/29 11:26:00;;;;;;;14.40;6.00;;;13.30;97.10;;;;;;4963266;28;20481;-66
2024/01/29 11:28:27;;;;;;;9.37;5.67;;;13.40;97.70;;;;;;4965185;28;20927;-67
2024/01/29 11:30:54;;;;;;;10.60;7.07;;;13.40;97.30;;;;;;4984787;28;20848;-69
2024/01/29 11:33:23;;;;;;;17.90;6.47;;;13.60;97.00;;;;;;4968686;28;20551;-68
2024/01/29 11:35:55;;;;;;;8.20;5.90;;;13.70;97.80;;;;;;4952738;28;21163;-67
2024/01/29 11:38:27;;;;;;;13.23;6.97;;;13.80;97.40;;;;;;4963209;28;20536;-68
2024/01/29 11:40:54;;;;;;;16.93;6.10;;;13.90;97.00;;;;;;4978326;28;20490;-68
2024/01/29 11:43:21;;;;;;;12.20;5.10;;;14.00;96.90;;;;;;4963715;28;20548;-69
2024/01/29 11:45:50;;;;;;;15.03;5.60;;;14.10;96.20;;;;;;4975996;28;20570;-69
2024/01/29 11:48:18;;;;;;;10.17;5.40;;;14.20;96.70;;;;;;4973896;28;20504;-69
2024/01/29 11:50:48;;;;;;;6.67;5.97;;;14.20;96.10;;;;;;4966244;28;20524;-66
2024/01/29 11:53:17;;;;;;;12.33;5.27;;;14.20;96.40;;;;;;4968846;28;20470;-67
2024/01/29 11:55:46;;;;;;;17.10;6.30;;;14.10;95.50;;;;;;4958646;28;20493;-67
2024/01/29 11:58:15;;;;;;;8.90;5.13;;;14.20;96.00;;;;;;4986708;28;20485;-68
2024/01/29 12:00:43;;;;;;;8.07;5.73;;;14.20;95.80;;;;;;4978326;28;20489;-67
2024/01/29 12:03:11;;;;;;;8.40;5.03;;;14.30;95.70;;;;;;4937170;28;20473;-69
2024/01/29 12:05:40;;;;;;;6.87;5.53;;;14.30;95.40;;;;;;4986904;28;20886;-67
2024/01/29 12:08:14;;;;;;;4.40;4.00;;;14.40;95.40;;;;;;4952978;28;20810;-68
2024/01/29 12:10:42;;;;;;;7.37;4.80;;;14.40;95.10;;;;;;4984875;28;20490;-68
2024/01/29 12:13:13;;;;;;;26.93;6.50;;;14.40;95.40;;;;;;4970109;28;20476;-66
2024/01/29 12:15:40;;;;;;;5.10;4.40;;;14.50;95.60;;;;;;4966987;28;20486;-68
2024/01/29 12:18:10;;;;;;;9.23;5.13;;;14.50;95.10;;;;;;4979060;28;21017;-68
2024/01/29 12:20:37;;;;;;;16.10;6.00;;;14.60;95.50;;;;;;4982100;28;20537;-70
2024/01/29 12:23:05;;;;;;;8.30;4.50;;;14.70;94.90;;;;;;4976700;28;20494;-69
2024/01/29 12:25:36;;;;;;;7.03;4.80;;;14.70;95.30;;;;;;4983535;28;20886;-68
2024/01/29 12:28:04;;;;;;;4.70;4.30;;;15.00;96.00;;;;;;4972998;28;20494;-69
2024/01/29 12:30:31;;;;;;;10.30;5.73;;;15.10;95.30;;;;;;4977797;28;20473;-69
2024/01/29 12:33:00;;;;;;;5.17;4.67;;;15.00;94.70;;;;;;4970236;28;20456;-69
2024/01/29 12:35:28;;;;;;;8.00;4.70;;;15.10;95.40;;;;;;4989790;28;20557;-68
2024/01/29 12:38:03;;;;;;;8.10;5.33;;;15.10;94.80;;;;;;4983076;28;20509;-68
2024/01/29 12:40:30;;;;;;;29.23;6.07;;;15.10;94.90;;;;;;4977667;28;20488;-69
2024/01/29 12:43:02;;;;;;;7.93;5.00;;;15.30;94.30;;;;;;4990266;28;20482;-70